sensor_id;sensor_type;location;lat;lon;timestamp;P1;durP1;ratioP1;P2;durP2;ratioP2
6306;SDS011;3186;54.062;9.962;2023-06-22T00:00:57;5.03;;;3.50;;
6306;SDS011;3186;54.062;9.962;2023-06-22T00:03:24;3.53;;;3.23;;
6306;SDS011;3186;54.062;9.962;2023-06-22T00:05:50;4.03;;;3.10;;
6306;SDS011;3186;54.062;9.962;2023-06-22T00:08:17;4.73;;;3.27;;
6306;SDS011;3186;54.062;9.962;2023-06-22T00:10:44;3.70;;;3.40;;
6306;SDS011;3186;54.062;9.962;2023-06-22T00:13:11;3.63;;;3.33;;
6306;SDS011;3186;54.062;9.962;2023-06-22T00:15:38;7.77;;;3.17;;
6306;SDS011;3186;54.062;9.962;2023-06-22T00:18:06;4.73;;;3.47;;
6306;SDS011;3186;54.062;9.962;2023-06-22T00:20:32;3.93;;;3.50;;
6306;SDS011;3186;54.062;9.962;2023-06-22T00:22:59;3.63;;;3.23;;
6306;SDS011;3186;54.062;9.962;2023-06-22T00:25:25;3.23;;;2.93;;
6306;SDS011;3186;54.062;9.962;2023-06-22T00:27:51;4.67;;;3.17;;
6306;SDS011;3186;54.062;9.962;2023-06-22T00:30:20;4.40;;;3.20;;
6306;SDS011;3186;54.062;9.962;2023-06-22T00:32:46;4.73;;;3.13;;
6306;SDS011;3186;54.062;9.962;2023-06-22T00:35:13;4.33;;;3.10;;
6306;SDS011;3186;54.062;9.962;2023-06-22T00:37:39;3.83;;;3.17;;
6306;SDS011;3186;54.062;9.962;2023-06-22T00:40:08;4.70;;;3.53;;
6306;SDS011;3186;54.062;9.962;2023-06-22T00:42:37;5.53;;;3.60;;
6306;SDS011;3186;54.062;9.962;2023-06-22T00:45:04;3.97;;;2.90;;
6306;SDS011;3186;54.062;9.962;2023-06-22T00:47:32;3.90;;;3.00;;
6306;SDS011;3186;54.062;9.962;2023-06-22T00:50:03;5.80;;;3.50;;
6306;SDS011;3186;54.062;9.962;2023-06-22T00:52:32;5.00;;;3.20;;
6306;SDS011;3186;54.062;9.962;2023-06-22T00:55:00;3.40;;;2.97;;
6306;SDS011;3186;54.062;9.962;2023-06-22T00:57:28;4.00;;;3.57;;
6306;SDS011;3186;54.062;9.962;2023-06-22T00:59:54;3.60;;;3.20;;
6306;SDS011;3186;54.062;9.962;2023-06-22T01:02:21;3.80;;;3.40;;
6306;SDS011;3186;54.062;9.962;2023-06-22T01:04:46;3.57;;;3.27;;
6306;SDS011;3186;54.062;9.962;2023-06-22T01:09:52;3.87;;;2.93;;
6306;SDS011;3186;54.062;9.962;2023-06-22T01:12:40;4.20;;;3.10;;
6306;SDS011;3186;54.062;9.962;2023-06-22T01:15:11;4.47;;;3.80;;
6306;SDS011;3186;54.062;9.962;2023-06-22T01:17:45;3.47;;;3.17;;
6306;SDS011;3186;54.062;9.962;2023-06-22T01:20:12;3.10;;;2.80;;
6306;SDS011;3186;54.062;9.962;2023-06-22T01:22:46;4.63;;;3.43;;
6306;SDS011;3186;54.062;9.962;2023-06-22T01:25:36;4.13;;;3.40;;
6306;SDS011;3186;54.062;9.962;2023-06-22T01:31:10;3.90;;;2.87;;
6306;SDS011;3186;54.062;9.962;2023-06-22T01:33:39;3.60;;;3.13;;
6306;SDS011;3186;54.062;9.962;2023-06-22T01:36:08;3.80;;;3.30;;
6306;SDS011;3186;54.062;9.962;2023-06-22T01:38:34;3.27;;;2.97;;
6306;SDS011;3186;54.062;9.962;2023-06-22T01:41:02;3.97;;;3.27;;
6306;SDS011;3186;54.062;9.962;2023-06-22T01:43:29;4.10;;;3.70;;
6306;SDS011;3186;54.062;9.962;2023-06-22T01:45:55;3.60;;;3.30;;
6306;SDS011;3186;54.062;9.962;2023-06-22T01:48:22;4.63;;;3.50;;
6306;SDS011;3186;54.062;9.962;2023-06-22T01:50:49;3.60;;;3.30;;
6306;SDS011;3186;54.062;9.962;2023-06-22T01:53:16;3.53;;;3.23;;
6306;SDS011;3186;54.062;9.962;2023-06-22T01:55:44;4.50;;;3.57;;
6306;SDS011;3186;54.062;9.962;2023-06-22T01:58:09;3.80;;;3.50;;
6306;SDS011;3186;54.062;9.962;2023-06-22T02:00:38;4.00;;;3.47;;
6306;SDS011;3186;54.062;9.962;2023-06-22T02:03:11;6.20;;;3.80;;
6306;SDS011;3186;54.062;9.962;2023-06-22T02:05:55;6.90;;;3.10;;
6306;SDS011;3186;54.062;9.962;2023-06-22T02:08:30;3.53;;;3.23;;
6306;SDS011;3186;54.062;9.962;2023-06-22T02:11:02;3.50;;;3.20;;
6306;SDS011;3186;54.062;9.962;2023-06-22T02:13:28;4.10;;;3.70;;
6306;SDS011;3186;54.062;9.962;2023-06-22T02:15:55;6.17;;;3.53;;
6306;SDS011;3186;54.062;9.962;2023-06-22T02:18:22;4.97;;;3.50;;
6306;SDS011;3186;54.062;9.962;2023-06-22T02:20:47;5.00;;;3.27;;
6306;SDS011;3186;54.062;9.962;2023-06-22T02:23:13;4.77;;;4.00;;
6306;SDS011;3186;54.062;9.962;2023-06-22T02:25:39;5.40;;;3.53;;
6306;SDS011;3186;54.062;9.962;2023-06-22T02:28:05;4.17;;;3.57;;
6306;SDS011;3186;54.062;9.962;2023-06-22T02:30:31;7.20;;;3.73;;
6306;SDS011;3186;54.062;9.962;2023-06-22T02:32:58;4.20;;;3.77;;
6306;SDS011;3186;54.062;9.962;2023-06-22T02:35:25;4.43;;;3.87;;
6306;SDS011;3186;54.062;9.962;2023-06-22T02:37:52;5.00;;;4.37;;
6306;SDS011;3186;54.062;9.962;2023-06-22T02:40:18;6.27;;;3.60;;
6306;SDS011;3186;54.062;9.962;2023-06-22T02:42:44;4.00;;;3.70;;
6306;SDS011;3186;54.062;9.962;2023-06-22T02:45:09;4.93;;;3.77;;
6306;SDS011;3186;54.062;9.962;2023-06-22T02:47:35;4.80;;;3.83;;
6306;SDS011;3186;54.062;9.962;2023-06-22T02:50:01;4.27;;;3.70;;
6306;SDS011;3186;54.062;9.962;2023-06-22T02:52:31;5.90;;;4.40;;
6306;SDS011;3186;54.062;9.962;2023-06-22T02:54:57;4.13;;;3.73;;
6306;SDS011;3186;54.062;9.962;2023-06-22T02:57:22;5.33;;;4.20;;
6306;SDS011;3186;54.062;9.962;2023-06-22T02:59:48;5.50;;;4.33;;
6306;SDS011;3186;54.062;9.962;2023-06-22T03:02:14;5.57;;;4.03;;
6306;SDS011;3186;54.062;9.962;2023-06-22T03:04:41;5.87;;;4.43;;
6306;SDS011;3186;54.062;9.962;2023-06-22T03:07:07;7.00;;;4.83;;
6306;SDS011;3186;54.062;9.962;2023-06-22T03:09:33;5.57;;;4.53;;
6306;SDS011;3186;54.062;9.962;2023-06-22T03:11:59;6.10;;;5.13;;
6306;SDS011;3186;54.062;9.962;2023-06-22T03:14:34;4.67;;;4.20;;
6306;SDS011;3186;54.062;9.962;2023-06-22T03:17:01;5.23;;;4.67;;
6306;SDS011;3186;54.062;9.962;2023-06-22T03:19:28;6.60;;;5.47;;
6306;SDS011;3186;54.062;9.962;2023-06-22T03:21:56;6.27;;;5.13;;
6306;SDS011;3186;54.062;9.962;2023-06-22T03:24:24;7.20;;;5.67;;
6306;SDS011;3186;54.062;9.962;2023-06-22T03:26:50;5.73;;;4.87;;
6306;SDS011;3186;54.062;9.962;2023-06-22T03:29:16;6.53;;;5.33;;
6306;SDS011;3186;54.062;9.962;2023-06-22T03:31:44;7.73;;;5.23;;
6306;SDS011;3186;54.062;9.962;2023-06-22T03:34:10;6.07;;;5.47;;
6306;SDS011;3186;54.062;9.962;2023-06-22T03:36:36;6.50;;;5.23;;
6306;SDS011;3186;54.062;9.962;2023-06-22T03:39:03;6.07;;;5.27;;
6306;SDS011;3186;54.062;9.962;2023-06-22T03:41:29;8.13;;;6.30;;
6306;SDS011;3186;54.062;9.962;2023-06-22T03:43:55;9.50;;;6.03;;
6306;SDS011;3186;54.062;9.962;2023-06-22T03:46:21;6.13;;;5.53;;
6306;SDS011;3186;54.062;9.962;2023-06-22T03:48:47;8.73;;;5.90;;
6306;SDS011;3186;54.062;9.962;2023-06-22T03:51:13;6.50;;;5.77;;
6306;SDS011;3186;54.062;9.962;2023-06-22T03:53:39;7.73;;;6.10;;
6306;SDS011;3186;54.062;9.962;2023-06-22T03:56:04;9.03;;;5.57;;
6306;SDS011;3186;54.062;9.962;2023-06-22T03:58:30;7.63;;;5.60;;
6306;SDS011;3186;54.062;9.962;2023-06-22T04:00:58;6.07;;;5.33;;
6306;SDS011;3186;54.062;9.962;2023-06-22T04:03:25;6.93;;;5.77;;
6306;SDS011;3186;54.062;9.962;2023-06-22T04:05:51;9.10;;;5.80;;
6306;SDS011;3186;54.062;9.962;2023-06-22T04:08:17;6.23;;;5.63;;
6306;SDS011;3186;54.062;9.962;2023-06-22T04:10:43;8.53;;;5.90;;
6306;SDS011;3186;54.062;9.962;2023-06-22T04:13:10;7.27;;;5.50;;
6306;SDS011;3186;54.062;9.962;2023-06-22T04:15:35;8.60;;;5.93;;
6306;SDS011;3186;54.062;9.962;2023-06-22T04:18:01;6.80;;;5.93;;
6306;SDS011;3186;54.062;9.962;2023-06-22T04:20:27;6.60;;;5.50;;
6306;SDS011;3186;54.062;9.962;2023-06-22T04:22:53;10.00;;;5.53;;
6306;SDS011;3186;54.062;9.962;2023-06-22T04:25:20;7.67;;;5.60;;
6306;SDS011;3186;54.062;9.962;2023-06-22T04:27:46;6.13;;;5.47;;
6306;SDS011;3186;54.062;9.962;2023-06-22T04:30:12;10.93;;;5.50;;
6306;SDS011;3186;54.062;9.962;2023-06-22T04:32:43;7.87;;;5.93;;
6306;SDS011;3186;54.062;9.962;2023-06-22T04:35:10;7.53;;;5.60;;
6306;SDS011;3186;54.062;9.962;2023-06-22T04:37:36;6.23;;;5.57;;
6306;SDS011;3186;54.062;9.962;2023-06-22T04:40:03;7.57;;;5.60;;
6306;SDS011;3186;54.062;9.962;2023-06-22T04:42:30;6.30;;;5.37;;
6306;SDS011;3186;54.062;9.962;2023-06-22T04:44:57;8.70;;;5.60;;
6306;SDS011;3186;54.062;9.962;2023-06-22T04:47:22;8.47;;;6.80;;
6306;SDS011;3186;54.062;9.962;2023-06-22T04:49:48;8.27;;;5.37;;
6306;SDS011;3186;54.062;9.962;2023-06-22T04:52:14;6.73;;;5.50;;
6306;SDS011;3186;54.062;9.962;2023-06-22T04:54:42;9.03;;;6.20;;
6306;SDS011;3186;54.062;9.962;2023-06-22T04:57:15;6.50;;;5.33;;
6306;SDS011;3186;54.062;9.962;2023-06-22T04:59:41;7.20;;;5.33;;
6306;SDS011;3186;54.062;9.962;2023-06-22T05:02:07;9.53;;;7.77;;
6306;SDS011;3186;54.062;9.962;2023-06-22T05:04:34;8.33;;;5.00;;
6306;SDS011;3186;54.062;9.962;2023-06-22T05:07:03;6.13;;;4.97;;
6306;SDS011;3186;54.062;9.962;2023-06-22T05:09:30;7.53;;;4.80;;
6306;SDS011;3186;54.062;9.962;2023-06-22T05:11:56;8.50;;;5.90;;
6306;SDS011;3186;54.062;9.962;2023-06-22T05:14:22;7.07;;;5.20;;
6306;SDS011;3186;54.062;9.962;2023-06-22T05:16:48;6.50;;;4.27;;
6306;SDS011;3186;54.062;9.962;2023-06-22T05:19:14;8.67;;;5.33;;
6306;SDS011;3186;54.062;9.962;2023-06-22T05:21:40;5.70;;;4.43;;
6306;SDS011;3186;54.062;9.962;2023-06-22T05:24:06;9.33;;;5.20;;
6306;SDS011;3186;54.062;9.962;2023-06-22T05:26:39;5.50;;;4.77;;
6306;SDS011;3186;54.062;9.962;2023-06-22T05:29:05;6.47;;;5.17;;
6306;SDS011;3186;54.062;9.962;2023-06-22T05:31:31;5.73;;;4.60;;
6306;SDS011;3186;54.062;9.962;2023-06-22T05:33:57;5.87;;;4.00;;
6306;SDS011;3186;54.062;9.962;2023-06-22T05:36:24;6.60;;;4.27;;
6306;SDS011;3186;54.062;9.962;2023-06-22T05:38:51;5.13;;;4.07;;
6306;SDS011;3186;54.062;9.962;2023-06-22T05:41:18;4.33;;;3.60;;
6306;SDS011;3186;54.062;9.962;2023-06-22T05:43:44;5.13;;;3.63;;
6306;SDS011;3186;54.062;9.962;2023-06-22T05:46:09;9.70;;;4.37;;
6306;SDS011;3186;54.062;9.962;2023-06-22T05:48:35;5.60;;;4.50;;
6306;SDS011;3186;54.062;9.962;2023-06-22T05:51:01;9.83;;;3.53;;
6306;SDS011;3186;54.062;9.962;2023-06-22T05:53:27;8.47;;;3.67;;
6306;SDS011;3186;54.062;9.962;2023-06-22T05:55:53;4.77;;;3.53;;
6306;SDS011;3186;54.062;9.962;2023-06-22T05:58:19;3.50;;;3.20;;
6306;SDS011;3186;54.062;9.962;2023-06-22T06:00:44;5.10;;;3.60;;
6306;SDS011;3186;54.062;9.962;2023-06-22T06:03:11;5.40;;;3.67;;
6306;SDS011;3186;54.062;9.962;2023-06-22T06:05:37;4.00;;;3.43;;
6306;SDS011;3186;54.062;9.962;2023-06-22T06:08:04;6.83;;;3.50;;
6306;SDS011;3186;54.062;9.962;2023-06-22T06:10:31;4.93;;;4.37;;
6306;SDS011;3186;54.062;9.962;2023-06-22T06:12:57;9.23;;;5.10;;
6306;SDS011;3186;54.062;9.962;2023-06-22T06:15:24;8.13;;;5.57;;
6306;SDS011;3186;54.062;9.962;2023-06-22T06:17:50;7.87;;;6.70;;
6306;SDS011;3186;54.062;9.962;2023-06-22T06:20:22;6.60;;;5.03;;
6306;SDS011;3186;54.062;9.962;2023-06-22T06:22:49;8.17;;;5.33;;
6306;SDS011;3186;54.062;9.962;2023-06-22T06:25:15;6.47;;;5.10;;
6306;SDS011;3186;54.062;9.962;2023-06-22T06:27:42;5.27;;;3.70;;
6306;SDS011;3186;54.062;9.962;2023-06-22T06:30:09;8.90;;;4.80;;
6306;SDS011;3186;54.062;9.962;2023-06-22T06:32:36;5.80;;;4.13;;
6306;SDS011;3186;54.062;9.962;2023-06-22T06:35:03;6.23;;;4.67;;
6306;SDS011;3186;54.062;9.962;2023-06-22T06:37:36;6.70;;;3.67;;
6306;SDS011;3186;54.062;9.962;2023-06-22T06:40:05;5.47;;;3.87;;
6306;SDS011;3186;54.062;9.962;2023-06-22T06:42:38;4.47;;;3.30;;
6306;SDS011;3186;54.062;9.962;2023-06-22T06:45:14;6.17;;;3.50;;
6306;SDS011;3186;54.062;9.962;2023-06-22T06:47:41;5.17;;;3.03;;
6306;SDS011;3186;54.062;9.962;2023-06-22T06:50:07;3.80;;;3.27;;
6306;SDS011;3186;54.062;9.962;2023-06-22T06:52:33;5.90;;;3.70;;
6306;SDS011;3186;54.062;9.962;2023-06-22T06:54:59;4.30;;;3.07;;
6306;SDS011;3186;54.062;9.962;2023-06-22T06:57:25;4.00;;;3.00;;
6306;SDS011;3186;54.062;9.962;2023-06-22T06:59:55;8.50;;;3.30;;
6306;SDS011;3186;54.062;9.962;2023-06-22T07:02:22;6.83;;;3.27;;
6306;SDS011;3186;54.062;9.962;2023-06-22T07:04:48;5.07;;;2.97;;
6306;SDS011;3186;54.062;9.962;2023-06-22T07:07:14;3.90;;;3.00;;
6306;SDS011;3186;54.062;9.962;2023-06-22T07:09:40;5.80;;;3.10;;
6306;SDS011;3186;54.062;9.962;2023-06-22T07:12:06;4.67;;;3.13;;
6306;SDS011;3186;54.062;9.962;2023-06-22T07:14:32;6.53;;;3.17;;
6306;SDS011;3186;54.062;9.962;2023-06-22T07:16:58;3.67;;;3.00;;
6306;SDS011;3186;54.062;9.962;2023-06-22T07:19:25;4.20;;;2.70;;
6306;SDS011;3186;54.062;9.962;2023-06-22T07:21:52;2.80;;;2.53;;
6306;SDS011;3186;54.062;9.962;2023-06-22T07:24:19;4.10;;;3.10;;
6306;SDS011;3186;54.062;9.962;2023-06-22T07:26:48;7.40;;;3.57;;
6306;SDS011;3186;54.062;9.962;2023-06-22T07:29:16;3.63;;;2.53;;
6306;SDS011;3186;54.062;9.962;2023-06-22T07:31:43;3.90;;;2.60;;
6306;SDS011;3186;54.062;9.962;2023-06-22T07:34:09;3.03;;;2.60;;
6306;SDS011;3186;54.062;9.962;2023-06-22T07:36:35;3.83;;;3.00;;
6306;SDS011;3186;54.062;9.962;2023-06-22T07:39:04;3.73;;;2.80;;
6306;SDS011;3186;54.062;9.962;2023-06-22T07:41:30;4.33;;;3.27;;
6306;SDS011;3186;54.062;9.962;2023-06-22T07:43:56;2.50;;;2.30;;
6306;SDS011;3186;54.062;9.962;2023-06-22T07:46:22;2.83;;;2.53;;
6306;SDS011;3186;54.062;9.962;2023-06-22T07:48:48;3.23;;;2.60;;
6306;SDS011;3186;54.062;9.962;2023-06-22T07:51:14;2.57;;;2.40;;
6306;SDS011;3186;54.062;9.962;2023-06-22T07:53:40;3.13;;;2.83;;
6306;SDS011;3186;54.062;9.962;2023-06-22T07:56:08;3.03;;;2.60;;
6306;SDS011;3186;54.062;9.962;2023-06-22T07:58:35;5.63;;;2.90;;
6306;SDS011;3186;54.062;9.962;2023-06-22T08:01:02;2.93;;;2.60;;
6306;SDS011;3186;54.062;9.962;2023-06-22T08:03:28;8.30;;;2.50;;
6306;SDS011;3186;54.062;9.962;2023-06-22T08:05:54;2.73;;;2.30;;
6306;SDS011;3186;54.062;9.962;2023-06-22T08:08:20;5.03;;;2.90;;
6306;SDS011;3186;54.062;9.962;2023-06-22T08:10:46;3.37;;;2.30;;
6306;SDS011;3186;54.062;9.962;2023-06-22T08:13:12;2.27;;;2.07;;
6306;SDS011;3186;54.062;9.962;2023-06-22T08:15:38;2.67;;;2.23;;
6306;SDS011;3186;54.062;9.962;2023-06-22T08:18:03;5.73;;;3.23;;
6306;SDS011;3186;54.062;9.962;2023-06-22T08:20:30;4.10;;;2.87;;
6306;SDS011;3186;54.062;9.962;2023-06-22T08:22:56;3.90;;;2.63;;
6306;SDS011;3186;54.062;9.962;2023-06-22T08:25:25;2.60;;;2.40;;
6306;SDS011;3186;54.062;9.962;2023-06-22T08:27:51;2.47;;;2.00;;
6306;SDS011;3186;54.062;9.962;2023-06-22T08:30:17;2.23;;;2.13;;
6306;SDS011;3186;54.062;9.962;2023-06-22T08:32:43;2.60;;;2.40;;
6306;SDS011;3186;54.062;9.962;2023-06-22T08:35:09;4.40;;;2.10;;
6306;SDS011;3186;54.062;9.962;2023-06-22T08:37:36;4.40;;;2.40;;
6306;SDS011;3186;54.062;9.962;2023-06-22T08:40:04;3.97;;;2.50;;
6306;SDS011;3186;54.062;9.962;2023-06-22T08:42:35;2.50;;;2.00;;
6306;SDS011;3186;54.062;9.962;2023-06-22T08:45:01;3.00;;;2.00;;
6306;SDS011;3186;54.062;9.962;2023-06-22T08:47:28;4.30;;;2.47;;
6306;SDS011;3186;54.062;9.962;2023-06-22T08:49:54;2.80;;;2.43;;
6306;SDS011;3186;54.062;9.962;2023-06-22T08:52:19;2.50;;;2.20;;
6306;SDS011;3186;54.062;9.962;2023-06-22T08:54:48;5.37;;;2.30;;
6306;SDS011;3186;54.062;9.962;2023-06-22T08:57:14;2.13;;;1.93;;
6306;SDS011;3186;54.062;9.962;2023-06-22T08:59:41;2.67;;;2.23;;
6306;SDS011;3186;54.062;9.962;2023-06-22T09:02:08;2.73;;;2.53;;
6306;SDS011;3186;54.062;9.962;2023-06-22T09:04:37;4.57;;;2.23;;
6306;SDS011;3186;54.062;9.962;2023-06-22T09:07:02;2.60;;;1.97;;
6306;SDS011;3186;54.062;9.962;2023-06-22T09:09:29;3.03;;;2.67;;
6306;SDS011;3186;54.062;9.962;2023-06-22T09:11:55;2.17;;;1.60;;
6306;SDS011;3186;54.062;9.962;2023-06-22T09:14:21;2.60;;;2.40;;
6306;SDS011;3186;54.062;9.962;2023-06-22T09:16:47;3.13;;;2.73;;
6306;SDS011;3186;54.062;9.962;2023-06-22T09:19:13;3.87;;;2.40;;
6306;SDS011;3186;54.062;9.962;2023-06-22T09:21:39;2.37;;;2.10;;
6306;SDS011;3186;54.062;9.962;2023-06-22T09:24:05;2.17;;;1.97;;
6306;SDS011;3186;54.062;9.962;2023-06-22T09:26:31;2.30;;;2.00;;
6306;SDS011;3186;54.062;9.962;2023-06-22T09:28:57;4.27;;;2.07;;
6306;SDS011;3186;54.062;9.962;2023-06-22T09:31:23;3.37;;;2.30;;
6306;SDS011;3186;54.062;9.962;2023-06-22T09:33:54;2.70;;;2.47;;
6306;SDS011;3186;54.062;9.962;2023-06-22T09:36:20;2.77;;;2.37;;
6306;SDS011;3186;54.062;9.962;2023-06-22T09:38:47;2.63;;;2.03;;
6306;SDS011;3186;54.062;9.962;2023-06-22T09:41:14;2.70;;;2.47;;
6306;SDS011;3186;54.062;9.962;2023-06-22T09:43:41;3.77;;;1.90;;
6306;SDS011;3186;54.062;9.962;2023-06-22T09:46:06;2.37;;;2.10;;
6306;SDS011;3186;54.062;9.962;2023-06-22T09:48:34;2.20;;;2.00;;
6306;SDS011;3186;54.062;9.962;2023-06-22T09:51:00;1.90;;;1.80;;
6306;SDS011;3186;54.062;9.962;2023-06-22T09:53:26;2.83;;;2.10;;
6306;SDS011;3186;54.062;9.962;2023-06-22T09:55:51;2.37;;;2.03;;
6306;SDS011;3186;54.062;9.962;2023-06-22T09:58:17;2.87;;;2.50;;
6306;SDS011;3186;54.062;9.962;2023-06-22T10:00:43;2.23;;;2.03;;
6306;SDS011;3186;54.062;9.962;2023-06-22T10:03:09;2.90;;;2.10;;
6306;SDS011;3186;54.062;9.962;2023-06-22T10:05:34;2.20;;;1.90;;
6306;SDS011;3186;54.062;9.962;2023-06-22T10:08:00;2.93;;;1.80;;
6306;SDS011;3186;54.062;9.962;2023-06-22T10:10:26;2.70;;;2.10;;
6306;SDS011;3186;54.062;9.962;2023-06-22T10:12:56;3.53;;;2.87;;
6306;SDS011;3186;54.062;9.962;2023-06-22T10:15:23;3.13;;;2.07;;
6306;SDS011;3186;54.062;9.962;2023-06-22T10:17:49;4.07;;;2.53;;
6306;SDS011;3186;54.062;9.962;2023-06-22T10:20:15;1.93;;;1.83;;
6306;SDS011;3186;54.062;9.962;2023-06-22T10:22:43;2.50;;;2.10;;
6306;SDS011;3186;54.062;9.962;2023-06-22T10:25:10;3.97;;;2.33;;
6306;SDS011;3186;54.062;9.962;2023-06-22T10:27:37;2.93;;;2.63;;
6306;SDS011;3186;54.062;9.962;2023-06-22T10:30:07;2.43;;;2.23;;
6306;SDS011;3186;54.062;9.962;2023-06-22T10:32:33;2.27;;;2.07;;
6306;SDS011;3186;54.062;9.962;2023-06-22T10:34:59;3.47;;;2.50;;
6306;SDS011;3186;54.062;9.962;2023-06-22T10:37:25;3.80;;;2.80;;
6306;SDS011;3186;54.062;9.962;2023-06-22T10:39:51;2.80;;;2.30;;
6306;SDS011;3186;54.062;9.962;2023-06-22T10:42:17;3.23;;;2.93;;
6306;SDS011;3186;54.062;9.962;2023-06-22T10:44:43;2.77;;;2.30;;
6306;SDS011;3186;54.062;9.962;2023-06-22T10:47:09;2.43;;;2.23;;
6306;SDS011;3186;54.062;9.962;2023-06-22T10:49:37;2.23;;;2.00;;
6306;SDS011;3186;54.062;9.962;2023-06-22T10:52:04;3.67;;;2.53;;
6306;SDS011;3186;54.062;9.962;2023-06-22T10:54:33;3.10;;;2.03;;
6306;SDS011;3186;54.062;9.962;2023-06-22T10:57:00;3.23;;;2.63;;
6306;SDS011;3186;54.062;9.962;2023-06-22T10:59:26;4.30;;;2.60;;
6306;SDS011;3186;54.062;9.962;2023-06-22T11:01:54;3.03;;;2.73;;
6306;SDS011;3186;54.062;9.962;2023-06-22T11:04:20;4.27;;;3.00;;
6306;SDS011;3186;54.062;9.962;2023-06-22T11:06:47;2.67;;;2.47;;
6306;SDS011;3186;54.062;9.962;2023-06-22T11:09:13;4.73;;;2.47;;
6306;SDS011;3186;54.062;9.962;2023-06-22T11:11:44;3.70;;;2.73;;
6306;SDS011;3186;54.062;9.962;2023-06-22T11:14:10;2.27;;;2.13;;
6306;SDS011;3186;54.062;9.962;2023-06-22T11:16:36;2.53;;;2.33;;
6306;SDS011;3186;54.062;9.962;2023-06-22T11:19:01;4.23;;;2.67;;
6306;SDS011;3186;54.062;9.962;2023-06-22T11:21:28;3.53;;;2.40;;
6306;SDS011;3186;54.062;9.962;2023-06-22T11:23:54;4.10;;;2.77;;
6306;SDS011;3186;54.062;9.962;2023-06-22T11:26:20;4.60;;;2.93;;
6306;SDS011;3186;54.062;9.962;2023-06-22T11:28:46;5.80;;;2.90;;
6306;SDS011;3186;54.062;9.962;2023-06-22T11:31:12;2.90;;;2.67;;
6306;SDS011;3186;54.062;9.962;2023-06-22T11:33:38;3.40;;;2.87;;
6306;SDS011;3186;54.062;9.962;2023-06-22T11:36:04;3.23;;;2.50;;
6306;SDS011;3186;54.062;9.962;2023-06-22T11:38:30;3.40;;;3.10;;
6306;SDS011;3186;54.062;9.962;2023-06-22T11:41:00;2.90;;;2.70;;
6306;SDS011;3186;54.062;9.962;2023-06-22T11:43:26;2.90;;;2.70;;
6306;SDS011;3186;54.062;9.962;2023-06-22T11:45:52;3.27;;;2.80;;
6306;SDS011;3186;54.062;9.962;2023-06-22T11:48:17;2.50;;;2.30;;
6306;SDS011;3186;54.062;9.962;2023-06-22T11:50:43;11.50;;;3.57;;
6306;SDS011;3186;54.062;9.962;2023-06-22T11:53:09;3.10;;;2.70;;
6306;SDS011;3186;54.062;9.962;2023-06-22T11:55:35;3.90;;;2.53;;
6306;SDS011;3186;54.062;9.962;2023-06-22T11:58:01;3.40;;;2.57;;
6306;SDS011;3186;54.062;9.962;2023-06-22T12:00:29;2.97;;;2.57;;
6306;SDS011;3186;54.062;9.962;2023-06-22T12:02:55;3.17;;;2.87;;
6306;SDS011;3186;54.062;9.962;2023-06-22T12:05:21;4.67;;;2.93;;
6306;SDS011;3186;54.062;9.962;2023-06-22T12:07:48;5.27;;;2.77;;
6306;SDS011;3186;54.062;9.962;2023-06-22T12:10:14;3.00;;;2.70;;
6306;SDS011;3186;54.062;9.962;2023-06-22T12:12:41;2.97;;;2.63;;
6306;SDS011;3186;54.062;9.962;2023-06-22T12:15:08;3.23;;;2.87;;
6306;SDS011;3186;54.062;9.962;2023-06-22T12:17:35;3.20;;;2.90;;
6306;SDS011;3186;54.062;9.962;2023-06-22T12:20:02;6.23;;;2.60;;
6306;SDS011;3186;54.062;9.962;2023-06-22T12:22:31;3.57;;;2.97;;
6306;SDS011;3186;54.062;9.962;2023-06-22T12:24:57;3.03;;;2.67;;
6306;SDS011;3186;54.062;9.962;2023-06-22T12:27:23;5.03;;;2.97;;
6306;SDS011;3186;54.062;9.962;2023-06-22T12:29:50;3.57;;;2.60;;
6306;SDS011;3186;54.062;9.962;2023-06-22T12:32:15;3.40;;;2.90;;
6306;SDS011;3186;54.062;9.962;2023-06-22T12:34:42;2.70;;;2.50;;
6306;SDS011;3186;54.062;9.962;2023-06-22T12:37:08;3.13;;;2.80;;
6306;SDS011;3186;54.062;9.962;2023-06-22T12:39:35;3.20;;;2.73;;
6306;SDS011;3186;54.062;9.962;2023-06-22T12:42:01;2.83;;;2.63;;
6306;SDS011;3186;54.062;9.962;2023-06-22T12:44:26;3.43;;;2.73;;
6306;SDS011;3186;54.062;9.962;2023-06-22T12:46:53;3.50;;;2.90;;
6306;SDS011;3186;54.062;9.962;2023-06-22T12:49:19;2.83;;;2.50;;
6306;SDS011;3186;54.062;9.962;2023-06-22T12:51:45;3.10;;;2.80;;
6306;SDS011;3186;54.062;9.962;2023-06-22T12:54:10;2.90;;;2.60;;
6306;SDS011;3186;54.062;9.962;2023-06-22T12:56:37;4.13;;;3.13;;
6306;SDS011;3186;54.062;9.962;2023-06-22T12:59:04;4.10;;;3.17;;
6306;SDS011;3186;54.062;9.962;2023-06-22T13:01:31;2.90;;;2.70;;
6306;SDS011;3186;54.062;9.962;2023-06-22T13:03:57;3.17;;;2.87;;
6306;SDS011;3186;54.062;9.962;2023-06-22T13:06:24;3.57;;;2.83;;
6306;SDS011;3186;54.062;9.962;2023-06-22T13:08:50;2.80;;;2.60;;
6306;SDS011;3186;54.062;9.962;2023-06-22T13:11:16;5.17;;;2.90;;
6306;SDS011;3186;54.062;9.962;2023-06-22T13:13:43;3.67;;;2.57;;
6306;SDS011;3186;54.062;9.962;2023-06-22T13:16:10;3.80;;;2.70;;
6306;SDS011;3186;54.062;9.962;2023-06-22T13:18:36;3.57;;;3.10;;
6306;SDS011;3186;54.062;9.962;2023-06-22T13:21:02;3.37;;;2.57;;
6306;SDS011;3186;54.062;9.962;2023-06-22T13:23:29;3.33;;;3.00;;
6306;SDS011;3186;54.062;9.962;2023-06-22T13:25:55;3.40;;;2.87;;
6306;SDS011;3186;54.062;9.962;2023-06-22T13:28:24;3.77;;;3.10;;
6306;SDS011;3186;54.062;9.962;2023-06-22T13:30:49;3.00;;;2.70;;
6306;SDS011;3186;54.062;9.962;2023-06-22T13:33:15;3.10;;;2.83;;
6306;SDS011;3186;54.062;9.962;2023-06-22T13:35:41;5.00;;;2.90;;
6306;SDS011;3186;54.062;9.962;2023-06-22T13:38:11;5.97;;;3.03;;
6306;SDS011;3186;54.062;9.962;2023-06-22T13:40:37;3.77;;;3.00;;
6306;SDS011;3186;54.062;9.962;2023-06-22T13:43:08;3.23;;;2.73;;
6306;SDS011;3186;54.062;9.962;2023-06-22T13:45:40;3.30;;;3.00;;
6306;SDS011;3186;54.062;9.962;2023-06-22T13:48:05;4.43;;;2.70;;
6306;SDS011;3186;54.062;9.962;2023-06-22T13:50:31;3.10;;;2.80;;
6306;SDS011;3186;54.062;9.962;2023-06-22T13:52:57;3.20;;;2.87;;
6306;SDS011;3186;54.062;9.962;2023-06-22T13:55:23;5.20;;;3.33;;
6306;SDS011;3186;54.062;9.962;2023-06-22T13:57:49;3.10;;;2.90;;
6306;SDS011;3186;54.062;9.962;2023-06-22T14:00:16;3.50;;;3.20;;
6306;SDS011;3186;54.062;9.962;2023-06-22T14:02:42;5.00;;;2.83;;
6306;SDS011;3186;54.062;9.962;2023-06-22T14:05:08;2.90;;;2.60;;
6306;SDS011;3186;54.062;9.962;2023-06-22T14:07:34;3.93;;;3.23;;
6306;SDS011;3186;54.062;9.962;2023-06-22T14:10:01;5.50;;;2.80;;
6306;SDS011;3186;54.062;9.962;2023-06-22T14:12:26;3.63;;;3.10;;
6306;SDS011;3186;54.062;9.962;2023-06-22T14:14:52;3.43;;;2.63;;
6306;SDS011;3186;54.062;9.962;2023-06-22T14:17:18;3.47;;;3.10;;
6306;SDS011;3186;54.062;9.962;2023-06-22T14:19:49;4.67;;;2.93;;
6306;SDS011;3186;54.062;9.962;2023-06-22T14:22:17;3.00;;;2.63;;
6306;SDS011;3186;54.062;9.962;2023-06-22T14:24:43;3.37;;;2.93;;
6306;SDS011;3186;54.062;9.962;2023-06-22T14:27:09;6.00;;;3.17;;
6306;SDS011;3186;54.062;9.962;2023-06-22T14:29:35;3.60;;;3.00;;
6306;SDS011;3186;54.062;9.962;2023-06-22T14:32:01;3.20;;;2.90;;
6306;SDS011;3186;54.062;9.962;2023-06-22T14:34:27;3.13;;;2.80;;
6306;SDS011;3186;54.062;9.962;2023-06-22T14:36:53;4.47;;;2.47;;
6306;SDS011;3186;54.062;9.962;2023-06-22T14:39:18;2.90;;;2.60;;
6306;SDS011;3186;54.062;9.962;2023-06-22T14:41:46;3.70;;;2.90;;
6306;SDS011;3186;54.062;9.962;2023-06-22T14:44:12;3.67;;;2.70;;
6306;SDS011;3186;54.062;9.962;2023-06-22T14:46:37;4.67;;;2.43;;
6306;SDS011;3186;54.062;9.962;2023-06-22T14:49:03;2.90;;;2.47;;
6306;SDS011;3186;54.062;9.962;2023-06-22T14:51:29;4.27;;;2.20;;
6306;SDS011;3186;54.062;9.962;2023-06-22T14:53:55;2.50;;;2.30;;
6306;SDS011;3186;54.062;9.962;2023-06-22T14:56:21;4.13;;;2.33;;
6306;SDS011;3186;54.062;9.962;2023-06-22T14:58:46;2.47;;;2.27;;
6306;SDS011;3186;54.062;9.962;2023-06-22T15:01:12;2.67;;;2.20;;
6306;SDS011;3186;54.062;9.962;2023-06-22T15:03:39;2.17;;;1.80;;
6306;SDS011;3186;54.062;9.962;2023-06-22T15:06:04;2.47;;;2.27;;
6306;SDS011;3186;54.062;9.962;2023-06-22T15:08:30;3.50;;;2.03;;
6306;SDS011;3186;54.062;9.962;2023-06-22T15:11:00;4.03;;;2.47;;
6306;SDS011;3186;54.062;9.962;2023-06-22T15:13:27;2.83;;;2.33;;
6306;SDS011;3186;54.062;9.962;2023-06-22T15:15:52;2.27;;;2.03;;
6306;SDS011;3186;54.062;9.962;2023-06-22T15:18:18;3.67;;;2.60;;